createdAt,value
2018-04-28T00:00:49.260Z,6.32
2018-04-28T00:01:57.922Z,5.93
2018-04-28T00:03:06.575Z,6.10
2018-04-28T00:04:15.188Z,5.87
2018-04-28T00:05:23.842Z,6.30
2018-04-28T00:06:32.499Z,7.78
2018-04-28T00:07:41.092Z,6.47
2018-04-28T00:08:49.672Z,6.82
2018-04-28T00:09:58.260Z,5.70
2018-04-28T00:11:06.869Z,6.53
2018-04-28T00:12:15.556Z,6.85
2018-04-28T00:13:24.154Z,5.85
2018-04-28T00:14:32.777Z,6.93
2018-04-28T00:15:41.520Z,6.03
2018-04-28T00:16:50.116Z,6.30
2018-04-28T00:17:58.688Z,6.60
2018-04-28T00:19:07.447Z,6.62
2018-04-28T00:20:16.127Z,6.75
2018-04-28T00:21:24.796Z,6.78
2018-04-28T00:22:34.376Z,6.18
2018-04-28T00:23:46.542Z,5.60
2018-04-28T00:24:55.325Z,6.65
2018-04-28T00:26:06.859Z,5.82
2018-04-28T00:28:51.818Z,7.37
2018-04-28T00:30:24.227Z,6.05
2018-04-28T00:31:38.738Z,6.90
2018-04-28T00:32:48.171Z,6.75
2018-04-28T00:33:57.708Z,5.65
2018-04-28T00:35:07.183Z,7.00
2018-04-28T00:36:16.882Z,5.93
2018-04-28T00:37:34.703Z,6.78
2018-04-28T00:38:52.921Z,6.57
2018-04-28T00:40:03.464Z,5.72
2018-04-28T00:41:12.132Z,6.32
2018-04-28T00:44:09.271Z,6.25
2018-04-28T00:45:19.856Z,6.30
2018-04-28T00:46:28.500Z,6.35
2018-04-28T00:47:37.108Z,5.30
2018-04-28T00:48:46.628Z,6.00
2018-04-28T00:50:13.130Z,6.15
2018-04-28T00:51:24.652Z,6.47
2018-04-28T00:52:34.206Z,5.53
2018-04-28T00:53:42.861Z,5.50
2018-04-28T00:54:52.391Z,5.70
2018-04-28T00:56:01.197Z,5.97
2018-04-28T00:58:44.614Z,6.15
2018-04-28T00:59:54.258Z,6.35
2018-04-28T01:01:07.578Z,6.72
2018-04-28T01:02:16.983Z,5.62
2018-04-28T01:03:26.562Z,5.68
2018-04-28T01:04:41.889Z,5.87
2018-04-28T01:05:51.577Z,5.43
2018-04-28T01:07:00.280Z,5.70
2018-04-28T01:08:08.990Z,5.97
2018-04-28T01:09:28.621Z,5.47
2018-04-28T01:10:37.179Z,6.18
2018-04-28T01:11:45.880Z,5.97
2018-04-28T01:12:55.366Z,5.40
2018-04-28T01:14:18.991Z,5.90
2018-04-28T01:15:29.839Z,6.35
2018-04-28T01:16:51.288Z,6.12
2018-04-28T01:18:01.094Z,6.30
2018-04-28T01:20:45.891Z,6.35
2018-04-28T01:22:10.399Z,6.90
2018-04-28T01:23:23.772Z,5.90
2018-04-28T01:24:40.303Z,6.25
2018-04-28T01:25:50.614Z,5.32
2018-04-28T01:27:20.098Z,6.50
2018-04-28T01:28:50.400Z,6.15
2018-04-28T01:30:18.812Z,5.68
2018-04-28T01:31:28.550Z,6.32
2018-04-28T01:34:15.632Z,6.78
2018-04-28T01:35:34.194Z,6.20
2018-04-28T01:37:14.343Z,5.93
2018-04-28T01:38:23.939Z,5.72
2018-04-28T01:39:51.383Z,5.60
2018-04-28T01:41:19.447Z,6.60
2018-04-28T01:44:20.512Z,6.20
2018-04-28T01:47:33.785Z,6.43
2018-04-28T01:48:44.585Z,6.03
2018-04-28T01:50:04.134Z,5.90
2018-04-28T01:51:28.591Z,5.60
2018-04-28T01:52:40.069Z,6.37
2018-04-28T01:55:34.311Z,6.40
2018-04-28T01:56:58.692Z,6.28
2018-04-28T01:58:13.324Z,5.80
2018-04-28T01:59:23.624Z,5.93
2018-04-28T02:00:40.879Z,7.12
2018-04-28T02:01:49.652Z,5.53
2018-04-28T02:03:17.507Z,7.12
2018-04-28T02:04:27.059Z,6.40
2018-04-28T02:05:35.991Z,6.55
2018-04-28T02:07:03.174Z,6.50
2018-04-28T02:08:13.475Z,6.78
2018-04-28T02:09:22.259Z,6.87
2018-04-28T02:10:37.520Z,5.65
2018-04-28T02:11:46.209Z,6.20
2018-04-28T02:13:12.491Z,6.87
2018-04-28T02:14:23.090Z,7.10
2018-04-28T02:15:31.794Z,5.78
2018-04-28T02:16:40.382Z,6.50
2018-04-28T02:17:54.958Z,5.80
2018-04-28T02:19:21.434Z,7.00
2018-04-28T02:20:55.327Z,6.07
2018-04-28T02:22:14.865Z,6.78
2018-04-28T02:23:29.702Z,6.78
2018-04-28T02:24:42.349Z,5.95
2018-04-28T02:25:54.551Z,6.05
2018-04-28T02:27:08.996Z,7.30
2018-04-28T02:28:26.560Z,5.97
2018-04-28T02:29:38.252Z,6.40
2018-04-28T02:30:52.967Z,6.28
2018-04-28T02:32:08.311Z,7.10
2018-04-28T02:33:17.691Z,5.97
2018-04-28T02:34:30.939Z,6.20
2018-04-28T02:35:46.066Z,5.87
2018-04-28T02:36:56.858Z,6.53
2018-04-28T02:38:36.085Z,6.00
2018-04-28T02:39:44.881Z,5.78
2018-04-28T02:42:51.599Z,6.65
2018-04-28T02:44:21.810Z,6.50
2018-04-28T02:45:50.947Z,6.50
2018-04-28T02:47:08.405Z,5.55
2018-04-28T02:48:33.546Z,6.85
2018-04-28T02:49:45.911Z,7.43
2018-04-28T02:50:57.146Z,6.05
2018-04-28T02:52:34.381Z,6.87
2018-04-28T02:55:11.468Z,5.90
2018-04-28T02:56:27.560Z,7.20
2018-04-28T02:58:14.355Z,6.62
2018-04-28T02:59:32.351Z,6.30
2018-04-28T03:00:59.825Z,6.43
2018-04-28T03:02:09.446Z,5.90
2018-04-28T03:03:30.607Z,6.97
2018-04-28T03:04:39.430Z,6.20
2018-04-28T03:05:48.073Z,6.47
2018-04-28T03:08:43.919Z,6.25
2018-04-28T03:09:55.030Z,6.95
2018-04-28T03:11:04.078Z,6.40
2018-04-28T03:12:16.483Z,6.65
2018-04-28T03:13:26.023Z,7.68
2018-04-28T03:14:50.565Z,6.60
2018-04-28T03:15:59.333Z,5.93
2018-04-28T03:17:08.062Z,7.03
2018-04-28T03:18:17.386Z,6.57
2018-04-28T03:19:29.029Z,6.55
2018-04-28T03:20:46.377Z,6.80
2018-04-28T03:21:56.684Z,7.55
2018-04-28T03:23:09.053Z,7.05
2018-04-28T03:24:40.542Z,6.37
2018-04-28T03:27:10.534Z,7.22
2018-04-28T03:28:35.721Z,6.10
2018-04-28T03:29:50.854Z,6.60
2018-04-28T03:31:16.078Z,6.90
2018-04-28T03:32:36.799Z,7.12
2018-04-28T03:33:45.555Z,6.70
2018-04-28T03:34:54.140Z,6.85
2018-04-28T03:36:08.855Z,5.87
2018-04-28T03:37:22.233Z,6.15
2018-04-28T03:38:43.804Z,7.47
2018-04-28T03:39:59.217Z,7.45
2018-04-28T03:41:25.282Z,7.00
2018-04-28T03:42:37.391Z,7.00
2018-04-28T03:43:46.139Z,5.85
2018-04-28T03:45:03.720Z,7.82
2018-04-28T03:46:22.438Z,7.35
2018-04-28T03:47:40.772Z,6.78
2018-04-28T03:49:05.167Z,7.00
2018-04-28T03:50:17.433Z,8.00
2018-04-28T03:51:28.758Z,6.78
2018-04-28T03:52:38.286Z,7.95
2018-04-28T03:53:47.818Z,7.37
2018-04-28T03:54:56.660Z,7.00
2018-04-28T03:56:05.301Z,6.62
2018-04-28T03:57:34.609Z,7.12
2018-04-28T03:58:55.360Z,7.05
2018-04-28T04:00:16.097Z,6.97
2018-04-28T04:01:36.743Z,7.25
2018-04-28T04:02:57.410Z,7.30
2018-04-28T04:04:13.804Z,7.07
2018-04-28T04:05:35.002Z,6.50
2018-04-28T04:06:53.308Z,6.70
2018-04-28T04:08:05.628Z,8.00
2018-04-28T04:09:16.191Z,7.10
2018-04-28T04:12:20.103Z,6.15
2018-04-28T04:13:35.654Z,6.53
2018-04-28T04:16:41.928Z,5.82
2018-04-28T04:18:11.200Z,5.53
2018-04-28T04:19:24.544Z,5.62
2018-04-28T04:20:39.239Z,5.43
2018-04-28T04:23:37.617Z,5.35
2018-04-28T04:24:51.691Z,5.00
2018-04-28T04:26:09.222Z,4.22
2018-04-28T04:27:23.891Z,4.07
2018-04-28T04:28:48.334Z,4.70
2018-04-28T04:29:57.934Z,4.22
2018-04-28T04:31:21.588Z,4.80
2018-04-28T04:32:30.424Z,4.00
2018-04-28T04:35:29.884Z,3.87
2018-04-28T04:36:40.811Z,3.87
2018-04-28T04:38:09.098Z,4.10
2018-04-28T04:39:35.067Z,3.70
2018-04-28T04:42:07.867Z,3.58
2018-04-28T04:43:26.267Z,3.50
2018-04-28T04:44:40.330Z,3.87
2018-04-28T04:45:52.005Z,4.45
2018-04-28T04:47:11.315Z,4.05
2018-04-28T04:48:45.795Z,4.80
2018-04-28T04:50:06.298Z,3.20
2018-04-28T04:51:26.939Z,3.75
2018-04-28T04:52:44.473Z,3.20
2018-04-28T04:54:19.841Z,3.40
2018-04-28T04:55:36.197Z,3.60
2018-04-28T04:56:46.647Z,4.35
2018-04-28T04:58:10.252Z,3.83
2018-04-28T04:59:21.514Z,3.20
2018-04-28T05:00:41.190Z,3.15
2018-04-28T05:02:02.300Z,2.70
2018-04-28T05:03:21.796Z,2.72
2018-04-28T05:04:35.075Z,3.12
2018-04-28T05:06:04.582Z,2.80
2018-04-28T05:09:03.356Z,2.35
2018-04-28T05:10:21.719Z,2.85
2018-04-28T05:13:06.855Z,3.00
2018-04-28T05:16:11.682Z,3.33
2018-04-28T05:17:32.524Z,2.65
2018-04-28T05:19:08.139Z,2.75
2018-04-28T05:20:28.951Z,3.78
2018-04-28T05:23:46.507Z,2.70
2018-04-28T05:26:44.042Z,2.53
2018-04-28T05:27:58.793Z,2.72
2018-04-28T05:29:29.340Z,2.45
2018-04-28T05:30:56.425Z,2.65
2018-04-28T05:32:17.421Z,2.95
2018-04-28T05:33:38.232Z,2.90
2018-04-28T05:35:06.467Z,3.10
2018-04-28T05:36:27.219Z,3.70
2018-04-28T05:37:38.813Z,3.30
2018-04-28T05:39:04.910Z,3.25
2018-04-28T05:40:17.593Z,3.10
2018-04-28T05:41:38.332Z,2.80
2018-04-28T05:42:58.850Z,2.62
2018-04-28T05:45:59.132Z,2.35
2018-04-28T05:47:13.582Z,2.10
2018-04-28T05:48:35.760Z,2.33
2018-04-28T05:50:04.215Z,2.33
2018-04-28T05:51:24.741Z,2.50
2018-04-28T05:52:45.487Z,2.20
2018-04-28T05:54:14.947Z,3.47
2018-04-28T05:55:46.146Z,2.42
2018-04-28T05:57:00.651Z,2.22
2018-04-28T05:58:32.254Z,1.80
2018-04-28T05:59:47.592Z,2.65
2018-04-28T06:00:57.059Z,2.37
2018-04-28T06:02:14.499Z,2.72
2018-04-28T06:03:31.152Z,2.90
2018-04-28T06:05:01.340Z,2.92
2018-04-28T06:06:15.902Z,3.80
2018-04-28T06:09:01.907Z,2.80
2018-04-28T06:10:29.285Z,2.53
2018-04-28T06:12:04.818Z,2.70
2018-04-28T06:14:56.406Z,3.22
2018-04-28T06:16:13.102Z,2.60
2018-04-28T06:17:42.787Z,2.85
2018-04-28T06:18:58.094Z,2.40
2018-04-28T06:20:27.186Z,2.10
2018-04-28T06:21:35.998Z,2.50
2018-04-28T06:22:44.737Z,2.30
2018-04-28T06:23:53.425Z,2.37
2018-04-28T06:25:02.191Z,2.65
2018-04-28T06:26:11.006Z,1.75
2018-04-28T06:27:19.607Z,2.55
2018-04-28T06:28:28.267Z,2.97
2018-04-28T06:29:36.906Z,2.60
2018-04-28T06:30:45.852Z,2.20
2018-04-28T06:31:54.401Z,2.40
2018-04-28T06:33:03.123Z,2.45
2018-04-28T06:34:11.678Z,2.05
2018-04-28T06:35:20.280Z,1.95
2018-04-28T06:36:29.575Z,2.12
2018-04-28T06:37:38.310Z,3.20
2018-04-28T06:38:47.104Z,3.28
2018-04-28T06:39:55.629Z,2.78
2018-04-28T06:41:05.205Z,2.45
2018-04-28T06:42:13.765Z,2.95
2018-04-28T06:43:22.335Z,2.40
2018-04-28T06:44:31.050Z,2.10
2018-04-28T06:45:39.577Z,2.87
2018-04-28T06:46:48.180Z,2.87
2018-04-28T06:47:57.698Z,2.83
2018-04-28T06:49:06.374Z,3.65
2018-04-28T06:50:14.991Z,2.40
2018-04-28T06:51:23.619Z,2.55
2018-04-28T06:52:32.332Z,2.03
2018-04-28T06:53:41.760Z,2.42
2018-04-28T06:54:50.252Z,2.05
2018-04-28T06:55:59.624Z,2.30
2018-04-28T06:57:08.210Z,2.00
2018-04-28T06:58:16.892Z,2.25
2018-04-28T06:59:25.521Z,2.15
2018-04-28T07:00:34.140Z,2.00
2018-04-28T07:01:42.743Z,2.30
2018-04-28T07:02:51.524Z,2.20
2018-04-28T07:04:00.158Z,2.67
2018-04-28T07:05:08.857Z,2.30
2018-04-28T07:06:18.314Z,2.45
2018-04-28T07:07:27.073Z,2.03
2018-04-28T07:08:35.726Z,3.00
2018-04-28T07:09:44.412Z,1.98
2018-04-28T07:10:53.873Z,2.30
2018-04-28T07:12:02.556Z,2.70
2018-04-28T07:13:11.178Z,2.92
2018-04-28T07:14:19.786Z,2.40
2018-04-28T07:15:29.131Z,2.62
2018-04-28T07:16:37.797Z,2.45
2018-04-28T07:17:46.541Z,2.33
2018-04-28T07:18:55.292Z,2.25
2018-04-28T07:20:03.998Z,2.55
2018-04-28T07:21:13.496Z,2.58
2018-04-28T07:22:22.255Z,2.90
2018-04-28T07:23:30.893Z,2.60
2018-04-28T07:24:39.460Z,2.50
2018-04-28T07:25:48.133Z,2.90
2018-04-28T07:26:56.769Z,2.70
2018-04-28T07:28:05.453Z,2.55
2018-04-28T07:29:14.103Z,2.70
2018-04-28T07:30:23.515Z,2.05
2018-04-28T07:31:32.166Z,2.50
2018-04-28T07:32:40.831Z,2.30
2018-04-28T07:33:50.261Z,2.40
2018-04-28T07:34:58.948Z,2.80
2018-04-28T07:36:07.674Z,1.95
2018-04-28T07:37:16.404Z,2.50
2018-04-28T07:38:25.075Z,2.42
2018-04-28T07:39:34.422Z,2.50
2018-04-28T07:40:42.986Z,2.25
2018-04-28T07:41:51.831Z,2.72
2018-04-28T07:43:00.665Z,3.00
2018-04-28T07:44:10.181Z,1.95
2018-04-28T07:45:19.030Z,2.37
2018-04-28T07:46:27.695Z,2.97
2018-04-28T07:47:36.490Z,2.20
2018-04-28T07:48:45.175Z,1.92
2018-04-28T07:49:53.936Z,2.58
2018-04-28T07:51:03.382Z,2.70
2018-04-28T07:52:12.343Z,1.90
2018-04-28T07:53:21.135Z,2.75
2018-04-28T07:54:29.847Z,2.92
2018-04-28T07:55:38.508Z,2.67
2018-04-28T07:56:47.202Z,2.30
2018-04-28T07:57:55.846Z,2.45
2018-04-28T07:59:04.541Z,2.35
2018-04-28T08:00:13.182Z,2.50
2018-04-28T08:01:21.774Z,1.87
2018-04-28T08:02:30.477Z,2.28
2018-04-28T08:03:39.120Z,2.42
2018-04-28T08:04:47.668Z,2.60
2018-04-28T08:05:56.304Z,2.30
2018-04-28T08:07:05.918Z,1.98
2018-04-28T08:08:14.601Z,2.37
2018-04-28T08:09:23.247Z,3.30
2018-04-28T08:10:32.069Z,2.47
2018-04-28T08:11:40.859Z,2.47
2018-04-28T08:12:49.762Z,2.60
2018-04-28T08:13:58.422Z,2.87
2018-04-28T08:15:07.000Z,2.60
2018-04-28T08:16:15.509Z,2.75
2018-04-28T08:17:24.131Z,2.62
2018-04-28T08:18:32.868Z,2.80
2018-04-28T08:19:41.572Z,3.00
2018-04-28T08:20:51.008Z,2.60
2018-04-28T08:21:59.726Z,2.70
2018-04-28T08:23:08.299Z,2.78
2018-04-28T08:24:17.063Z,3.42
2018-04-28T08:25:25.710Z,2.08
2018-04-28T08:26:34.351Z,2.90
2018-04-28T08:27:43.111Z,2.65
2018-04-28T08:28:51.849Z,4.07
2018-04-28T08:30:00.471Z,3.22
2018-04-28T08:31:09.201Z,3.17
2018-04-28T08:32:17.820Z,3.62
2018-04-28T08:33:26.506Z,2.67
2018-04-28T08:34:35.176Z,2.78
2018-04-28T08:35:43.735Z,2.87
2018-04-28T08:36:52.359Z,2.58
2018-04-28T08:38:01.133Z,2.58
2018-04-28T08:39:09.792Z,3.17
2018-04-28T08:40:19.381Z,2.33
2018-04-28T08:41:28.120Z,3.00
2018-04-28T08:42:36.845Z,2.67
2018-04-28T08:43:45.519Z,2.87
2018-04-28T08:44:54.354Z,2.90
2018-04-28T08:46:02.980Z,2.30
2018-04-28T08:47:11.562Z,2.50
2018-04-28T08:48:20.179Z,2.80
2018-04-28T08:49:29.590Z,3.33
2018-04-28T08:50:38.112Z,3.03
2018-04-28T08:51:46.715Z,3.25
2018-04-28T08:52:55.430Z,3.75
2018-04-28T08:54:04.959Z,3.30
2018-04-28T08:55:13.634Z,3.50
2018-04-28T08:56:22.388Z,3.35
2018-04-28T08:57:31.090Z,3.50
2018-04-28T08:58:39.685Z,2.95
2018-04-28T09:00:00.466Z,2.83
2018-04-28T09:01:09.191Z,2.90
2018-04-28T09:02:18.633Z,3.00
2018-04-28T09:03:27.361Z,2.37
2018-04-28T09:04:35.985Z,2.40
2018-04-28T09:05:44.632Z,2.08
2018-04-28T09:06:56.093Z,2.53
2018-04-28T09:08:04.721Z,3.25
2018-04-28T09:09:13.455Z,2.47
2018-04-28T09:10:22.129Z,2.47
2018-04-28T09:11:30.936Z,2.15
2018-04-28T09:12:39.560Z,2.97
2018-04-28T09:13:48.262Z,2.65
2018-04-28T09:14:56.832Z,2.87
2018-04-28T09:16:05.546Z,2.20
2018-04-28T09:17:14.294Z,2.03
2018-04-28T09:18:22.899Z,3.00
2018-04-28T09:19:31.528Z,2.50
2018-04-28T09:20:40.141Z,2.70
2018-04-28T09:21:48.774Z,2.60
2018-04-28T09:22:58.086Z,2.70
2018-04-28T09:24:06.802Z,3.00
2018-04-28T09:25:15.451Z,2.70
2018-04-28T09:26:24.304Z,3.20
2018-04-28T09:27:33.052Z,2.75
2018-04-28T09:28:41.746Z,3.00
2018-04-28T09:29:50.426Z,2.92
2018-04-28T09:30:59.090Z,2.92
2018-04-28T09:32:07.659Z,3.28
2018-04-28T09:33:16.391Z,3.70
2018-04-28T09:34:25.160Z,2.87
2018-04-28T09:35:33.940Z,2.80
2018-04-28T09:36:42.575Z,2.72
2018-04-28T09:37:51.280Z,2.95
2018-04-28T09:38:59.981Z,3.30
2018-04-28T09:40:08.555Z,3.00
2018-04-28T09:41:17.182Z,2.85
2018-04-28T09:42:25.891Z,2.62
2018-04-28T09:43:34.499Z,2.70
2018-04-28T09:44:43.243Z,2.90
2018-04-28T09:45:51.812Z,3.15
2018-04-28T09:47:00.421Z,2.60
2018-04-28T09:48:09.310Z,2.15
2018-04-28T09:49:17.919Z,2.40
2018-04-28T09:50:26.620Z,2.20
2018-04-28T09:51:35.237Z,2.40
2018-04-28T09:52:43.941Z,2.70
2018-04-28T09:53:52.622Z,2.67
2018-04-28T09:55:01.272Z,2.75
2018-04-28T09:56:09.805Z,2.60
2018-04-28T09:57:18.372Z,2.55
2018-04-28T09:58:26.991Z,2.80
2018-04-28T09:59:35.714Z,3.12
2018-04-28T10:00:50.961Z,3.40
2018-04-28T10:01:59.502Z,2.50
2018-04-28T10:03:08.215Z,2.47
2018-04-28T10:04:22.711Z,2.45
2018-04-28T10:05:31.303Z,3.00
2018-04-28T10:06:40.035Z,2.90
2018-04-28T10:07:48.654Z,2.72
2018-04-28T10:08:58.002Z,2.47
2018-04-28T10:10:06.721Z,2.42
2018-04-28T10:11:15.468Z,2.30
2018-04-28T10:12:24.196Z,2.78
2018-04-28T10:13:32.932Z,2.90
2018-04-28T10:14:41.651Z,3.20
2018-04-28T10:15:50.405Z,2.65
2018-04-28T10:16:59.153Z,3.05
2018-04-28T10:18:07.861Z,3.50
2018-04-28T10:19:16.589Z,3.22
2018-04-28T10:20:25.318Z,3.20
2018-04-28T10:21:33.860Z,2.75
2018-04-28T10:22:42.576Z,2.70
2018-04-28T10:23:51.273Z,2.65
2018-04-28T10:24:59.994Z,2.10
2018-04-28T10:26:08.601Z,2.37
2018-04-28T10:27:17.265Z,2.70
2018-04-28T10:28:26.121Z,2.80
2018-04-28T10:29:34.792Z,2.97
2018-04-28T10:30:43.498Z,2.55
2018-04-28T10:31:52.264Z,2.70
2018-04-28T10:33:02.358Z,3.50
2018-04-28T10:34:11.067Z,2.80
2018-04-28T10:35:19.787Z,3.45
2018-04-28T10:36:28.443Z,2.85
2018-04-28T10:37:37.064Z,2.62
2018-04-28T10:38:45.707Z,3.00
2018-04-28T10:39:54.422Z,2.60
2018-04-28T10:41:03.286Z,2.55
2018-04-28T10:42:11.998Z,2.55
2018-04-28T10:43:20.756Z,2.15
2018-04-28T10:44:29.423Z,2.55
2018-04-28T10:45:38.131Z,3.25
2018-04-28T10:46:46.782Z,3.20
2018-04-28T10:47:55.521Z,3.35
2018-04-28T10:49:04.122Z,3.55
2018-04-28T10:50:12.878Z,2.87
2018-04-28T10:51:21.541Z,3.47
2018-04-28T10:52:30.285Z,3.17
2018-04-28T10:53:38.966Z,3.40
2018-04-28T10:54:47.547Z,3.10
2018-04-28T10:55:56.369Z,2.50
2018-04-28T10:57:05.824Z,2.85
2018-04-28T10:58:14.575Z,2.83
2018-04-28T10:59:23.216Z,2.80
2018-04-28T11:00:32.115Z,3.25
2018-04-28T11:01:40.699Z,3.60
2018-04-28T11:02:49.288Z,3.17
2018-04-28T11:03:57.943Z,2.72
2018-04-28T11:05:08.138Z,2.70
2018-04-28T11:06:16.833Z,3.30
2018-04-28T11:07:25.487Z,3.05
2018-04-28T11:08:34.297Z,3.17
2018-04-28T11:09:42.972Z,2.97
2018-04-28T11:10:51.685Z,3.12
2018-04-28T11:12:00.242Z,3.85
2018-04-28T11:13:08.883Z,3.03
2018-04-28T11:14:17.645Z,3.00
2018-04-28T11:15:27.143Z,3.45
2018-04-28T11:16:35.717Z,2.85
2018-04-28T11:17:45.100Z,3.45
2018-04-28T11:18:53.680Z,3.55
2018-04-28T11:20:02.449Z,3.20
2018-04-28T11:21:11.115Z,2.50
2018-04-28T11:22:19.711Z,2.40
2018-04-28T11:23:28.558Z,3.22
2018-04-28T11:24:37.343Z,3.12
2018-04-28T11:25:46.982Z,3.30
2018-04-28T11:26:55.480Z,3.03
2018-04-28T11:28:04.131Z,2.80
2018-04-28T11:29:13.535Z,3.10
2018-04-28T11:30:22.279Z,3.10
2018-04-28T11:31:30.885Z,3.33
2018-04-28T11:32:39.439Z,2.72
2018-04-28T11:33:48.354Z,3.00
2018-04-28T11:34:57.014Z,2.70
2018-04-28T11:36:05.596Z,3.17
2018-04-28T11:37:14.254Z,2.75
2018-04-28T11:38:23.079Z,2.90
2018-04-28T11:39:31.720Z,3.30
2018-04-28T11:40:40.326Z,2.95
2018-04-28T11:41:48.855Z,3.10
2018-04-28T11:42:57.666Z,4.12
2018-04-28T11:44:06.498Z,3.00
2018-04-28T11:45:15.142Z,2.80
2018-04-28T11:46:23.918Z,2.90
2018-04-28T11:47:32.599Z,2.70
2018-04-28T11:48:41.126Z,3.25
2018-04-28T11:49:49.857Z,4.32
2018-04-28T11:50:58.469Z,3.10
2018-04-28T11:52:07.008Z,4.05
2018-04-28T11:53:15.705Z,3.40
2018-04-28T11:54:24.245Z,3.08
2018-04-28T11:55:32.995Z,4.05
2018-04-28T11:56:41.710Z,3.87
2018-04-28T11:57:50.409Z,2.70
2018-04-28T11:58:59.280Z,3.35
2018-04-28T12:00:07.917Z,3.60
2018-04-28T12:01:17.478Z,3.20
2018-04-28T12:02:26.308Z,4.15
2018-04-28T12:03:35.096Z,3.17
2018-04-28T12:04:43.751Z,3.87
2018-04-28T12:05:52.460Z,2.97
2018-04-28T12:07:01.095Z,3.55
2018-04-28T12:08:09.796Z,3.20
2018-04-28T12:09:18.556Z,3.40
2018-04-28T12:10:27.290Z,3.40
2018-04-28T12:11:36.769Z,3.85
2018-04-28T12:12:45.631Z,3.10
2018-04-28T12:13:55.103Z,2.80
2018-04-28T12:15:03.972Z,2.60
2018-04-28T12:16:12.589Z,3.22
2018-04-28T12:17:21.378Z,3.87
2018-04-28T12:18:30.054Z,4.03
2018-04-28T12:19:38.623Z,3.90
2018-04-28T12:20:47.419Z,3.92
2018-04-28T12:21:56.100Z,3.20
2018-04-28T12:23:04.819Z,3.35
2018-04-28T12:24:13.385Z,3.35
2018-04-28T12:25:22.036Z,3.50
2018-04-28T12:26:30.750Z,4.35
2018-04-28T12:27:39.440Z,3.50
2018-04-28T12:28:48.230Z,4.30
2018-04-28T12:29:56.793Z,3.40
2018-04-28T12:31:05.433Z,2.95
2018-04-28T12:32:14.155Z,3.90
2018-04-28T12:33:22.753Z,3.70
2018-04-28T12:34:31.380Z,3.40
2018-04-28T12:35:39.994Z,3.42
2018-04-28T12:36:49.620Z,4.07
2018-04-28T12:37:59.271Z,4.43
2018-04-28T12:39:07.906Z,3.87
2018-04-28T12:40:16.681Z,3.70
2018-04-28T12:41:25.514Z,3.45
2018-04-28T12:42:34.204Z,3.90
2018-04-28T12:43:42.958Z,3.30
2018-04-28T12:44:51.591Z,4.00
2018-04-28T12:46:00.334Z,3.40
2018-04-28T12:47:08.971Z,3.60
2018-04-28T12:48:17.589Z,3.40
2018-04-28T12:49:26.433Z,3.30
2018-04-28T12:50:35.108Z,3.75
2018-04-28T12:51:43.602Z,3.45
2018-04-28T12:52:52.263Z,3.20
2018-04-28T12:54:00.928Z,4.18
2018-04-28T12:55:09.539Z,3.70
2018-04-28T12:56:18.120Z,3.28
2018-04-28T12:57:26.845Z,3.50
2018-04-28T12:58:35.487Z,3.55
2018-04-28T12:59:44.156Z,3.30
2018-04-28T13:00:52.954Z,3.42
2018-04-28T13:02:02.497Z,3.40
2018-04-28T13:03:11.161Z,3.30
2018-04-28T13:04:20.443Z,3.17
2018-04-28T13:05:29.245Z,3.95
2018-04-28T13:06:37.873Z,3.08
2018-04-28T13:07:47.380Z,2.90
2018-04-28T13:08:55.844Z,3.37
2018-04-28T13:10:04.362Z,3.30
2018-04-28T13:11:12.986Z,2.72
2018-04-28T13:12:21.687Z,3.00
2018-04-28T13:13:30.323Z,3.80
2018-04-28T13:14:39.073Z,3.55
2018-04-28T13:15:47.764Z,2.92
2018-04-28T13:16:56.468Z,2.90
2018-04-28T13:18:05.012Z,3.72
2018-04-28T13:19:13.695Z,2.97
2018-04-28T13:20:22.328Z,2.58
2018-04-28T13:21:30.877Z,3.60
2018-04-28T13:22:39.485Z,3.78
2018-04-28T13:23:48.145Z,2.80
2018-04-28T13:24:56.860Z,4.90
2018-04-28T13:26:05.623Z,2.95
2018-04-28T13:27:15.116Z,3.10
2018-04-28T13:28:24.695Z,2.47
2018-04-28T13:29:33.555Z,2.53
2018-04-28T13:30:42.223Z,2.58
2018-04-28T13:31:50.839Z,3.40
2018-04-28T13:32:59.541Z,3.78
2018-04-28T13:34:08.184Z,3.00
2018-04-28T13:35:16.738Z,2.70
2018-04-28T13:36:26.199Z,3.33
2018-04-28T13:37:34.882Z,2.60
2018-04-28T13:38:43.554Z,2.80
2018-04-28T13:39:53.139Z,3.17
2018-04-28T13:41:01.954Z,3.12
2018-04-28T13:42:10.662Z,2.55
2018-04-28T13:43:20.228Z,3.33
2018-04-28T13:44:28.867Z,2.80
2018-04-28T13:45:37.548Z,3.28
2018-04-28T13:46:46.272Z,3.67
2018-04-28T13:47:54.969Z,3.70
2018-04-28T13:49:03.642Z,4.85
2018-04-28T13:50:12.305Z,3.72
2018-04-28T13:51:20.900Z,3.75
2018-04-28T13:52:30.333Z,3.20
2018-04-28T13:53:39.007Z,3.75
2018-04-28T13:54:47.693Z,3.22
2018-04-28T13:55:56.471Z,3.53
2018-04-28T13:57:05.088Z,3.37
2018-04-28T13:58:13.794Z,3.50
2018-04-28T13:59:22.366Z,3.60
2018-04-28T14:00:30.892Z,3.28
2018-04-28T14:01:39.749Z,4.03
2018-04-28T14:02:48.477Z,3.72
2018-04-28T14:03:57.892Z,2.87
2018-04-28T14:05:06.580Z,3.20
2018-04-28T14:06:15.189Z,3.65
2018-04-28T14:07:24.562Z,5.05
2018-04-28T14:08:33.431Z,4.62
2018-04-28T14:09:42.233Z,3.53
2018-04-28T14:10:50.815Z,3.30
2018-04-28T14:11:59.456Z,3.30
2018-04-28T14:13:08.970Z,3.55
2018-04-28T14:14:17.753Z,3.70
2018-04-28T14:15:27.288Z,3.17
2018-04-28T14:16:36.034Z,3.33
2018-04-28T14:17:45.564Z,2.80
2018-04-28T14:18:54.228Z,3.37
2018-04-28T14:20:02.906Z,3.08
2018-04-28T14:21:11.774Z,3.72
2018-04-28T14:22:21.222Z,3.67
2018-04-28T14:23:30.060Z,3.00
2018-04-28T14:24:38.861Z,3.33
2018-04-28T14:25:48.392Z,3.60
2018-04-28T14:26:57.174Z,3.75
2018-04-28T14:28:05.756Z,3.47
2018-04-28T14:29:14.526Z,3.47
2018-04-28T14:30:23.142Z,3.30
2018-04-28T14:31:32.367Z,2.80
2018-04-28T14:32:41.093Z,3.00
2018-04-28T14:33:49.737Z,3.15
2018-04-28T14:34:58.573Z,3.40
2018-04-28T14:36:07.304Z,3.72
2018-04-28T14:37:15.993Z,3.50
2018-04-28T14:38:24.519Z,3.72
2018-04-28T14:39:33.193Z,3.45
2018-04-28T14:40:41.898Z,3.62
2018-04-28T14:41:50.631Z,3.58
2018-04-28T14:42:59.403Z,3.28
2018-04-28T14:44:07.980Z,3.67
2018-04-28T14:45:16.659Z,3.20
2018-04-28T14:46:25.386Z,3.78
2018-04-28T14:47:34.000Z,3.20
2018-04-28T14:48:43.395Z,3.35
2018-04-28T14:49:52.364Z,4.40
2018-04-28T14:51:01.173Z,3.70
2018-04-28T14:52:09.724Z,3.30
2018-04-28T14:53:18.323Z,3.70
2018-04-28T14:54:26.983Z,3.90
2018-04-28T14:55:36.392Z,3.33
2018-04-28T14:56:45.135Z,3.70
2018-04-28T14:57:53.899Z,3.25
2018-04-28T14:59:02.563Z,3.83
2018-04-28T15:00:11.332Z,3.37
2018-04-28T15:01:20.324Z,3.40
2018-04-28T15:02:29.006Z,3.90
2018-04-28T15:03:37.598Z,3.15
2018-04-28T15:04:46.272Z,3.40
2018-04-28T15:05:54.876Z,3.58
2018-04-28T15:07:03.624Z,3.97
2018-04-28T15:08:12.224Z,3.42
2018-04-28T15:09:20.956Z,3.62
2018-04-28T15:10:29.586Z,3.65
2018-04-28T15:11:38.186Z,3.42
2018-04-28T15:12:46.978Z,3.70
2018-04-28T15:13:56.394Z,4.65
2018-04-28T15:15:04.993Z,3.30
2018-04-28T15:16:13.655Z,3.65
2018-04-28T15:17:22.291Z,2.85
2018-04-28T15:18:30.926Z,3.42
2018-04-28T15:19:39.586Z,3.47
2018-04-28T15:20:48.282Z,3.42
2018-04-28T15:21:56.979Z,3.50
2018-04-28T15:23:06.375Z,3.47
2018-04-28T15:24:15.089Z,3.67
2018-04-28T15:25:23.785Z,2.83
2018-04-28T15:26:32.325Z,3.22
2018-04-28T15:27:40.981Z,3.60
2018-04-28T15:28:49.760Z,3.30
2018-04-28T15:29:58.359Z,3.83
2018-04-28T15:31:06.974Z,3.25
2018-04-28T15:32:15.695Z,3.20
2018-04-28T15:33:24.333Z,3.20
2018-04-28T15:34:32.895Z,3.83
2018-04-28T15:35:41.533Z,3.92
2018-04-28T15:36:50.922Z,4.28
2018-04-28T15:37:59.530Z,3.10
2018-04-28T15:39:08.161Z,3.42
2018-04-28T15:40:16.784Z,3.60
2018-04-28T15:41:26.163Z,3.28
2018-04-28T15:42:34.941Z,3.58
2018-04-28T15:43:43.666Z,3.47
2018-04-28T15:44:52.333Z,3.90
2018-04-28T15:46:01.030Z,3.30
2018-04-28T15:47:10.338Z,3.87
2018-04-28T15:48:19.075Z,3.47
2018-04-28T15:49:27.741Z,5.73
2018-04-28T15:50:36.428Z,3.73
2018-04-28T15:51:45.200Z,3.90
2018-04-28T15:52:53.786Z,3.87
2018-04-28T15:54:02.492Z,3.50
2018-04-28T15:55:11.199Z,3.37
2018-04-28T15:56:19.902Z,3.50
2018-04-28T15:57:28.773Z,3.73
2018-04-28T15:58:37.476Z,3.57
2018-04-28T15:59:46.188Z,3.43
2018-04-28T16:00:54.760Z,3.60
2018-04-28T16:02:04.088Z,3.60
2018-04-28T16:03:12.894Z,3.37
2018-04-28T16:04:21.623Z,3.33
2018-04-28T16:05:30.441Z,3.63
2018-04-28T16:06:39.188Z,4.00
2018-04-28T16:07:47.810Z,4.40
2018-04-28T16:08:56.601Z,3.70
2018-04-28T16:10:05.326Z,3.80
2018-04-28T16:11:14.587Z,3.37
2018-04-28T16:12:23.358Z,4.00
2018-04-28T16:13:31.987Z,3.77
2018-04-28T16:14:40.813Z,4.53
2018-04-28T16:15:49.389Z,3.60
2018-04-28T16:16:58.056Z,3.70
2018-04-28T16:18:06.694Z,3.80
2018-04-28T16:19:15.414Z,4.63
2018-04-28T16:20:24.003Z,3.47
2018-04-28T16:21:32.607Z,3.30
2018-04-28T16:22:41.276Z,3.70
2018-04-28T16:23:50.059Z,3.37
2018-04-28T16:24:58.662Z,3.57
2018-04-28T16:26:07.367Z,3.13
2018-04-28T16:27:16.028Z,4.20
2018-04-28T16:28:25.483Z,4.33
2018-04-28T16:29:34.183Z,3.90
2018-04-28T16:30:43.650Z,3.73
2018-04-28T16:31:52.952Z,4.00